Time;durP1;ratioP1;P1;durP2;ratioP2;P2;SDS_P1;SDS_P2;PMS_P1;PMS_P2;Temp;Humidity;BMP_temperature;BMP_pressure;BME280_temperature;BME280_humidity;BME280_pressure;Samples;Min_cycle;Max_cycle;Signal;HPM_P1;HPM_P2
2022/12/04 07:18:49;;;;;;;119.93;30.55;;;0.40;99.90;;;;;;7618464;19;20367;-74
2022/12/04 07:21:24;;;;;;;117.50;34.67;;;0.40;99.90;;;;;;7618746;19;20021;-74
2022/12/04 07:23:59;;;;;;;128.32;34.70;;;0.60;99.90;;;;;;7630650;19;21095;-74
2022/12/04 07:26:31;;;;;;;131.00;35.15;;;0.60;99.90;;;;;;7613716;19;20046;-74
2022/12/04 07:29:03;;;;;;;127.50;35.72;;;0.60;99.90;;;;;;7612254;19;20025;-74
2022/12/04 07:31:35;;;;;;;124.53;33.38;;;0.70;99.90;;;;;;7624336;19;20093;-74
2022/12/04 07:34:07;;;;;;;106.38;29.48;;;0.70;99.90;;;;;;7621741;19;20664;-74
2022/12/04 07:36:39;;;;;;;119.50;31.50;;;0.70;99.90;;;;;;7610027;19;20014;-74
2022/12/04 07:39:11;;;;;;;143.00;34.30;;;0.80;99.90;;;;;;7637858;19;20792;-74
2022/12/04 07:41:44;;;;;;;88.88;28.95;;;0.80;99.90;;;;;;7608790;19;20014;-74
2022/12/04 07:44:18;;;;;;;93.00;29.15;;;0.80;99.90;;;;;;7623361;19;20081;-74
2022/12/04 07:46:50;;;;;;;161.88;33.90;;;0.90;99.90;;;;;;7597907;19;20010;-74
2022/12/04 07:49:23;;;;;;;132.98;33.67;;;0.90;99.90;;;;;;7612101;19;20051;-74
2022/12/04 07:51:55;;;;;;;117.18;30.30;;;1.00;99.90;;;;;;7617187;19;20668;-74
2022/12/04 07:54:28;;;;;;;127.05;32.67;;;1.00;99.90;;;;;;7624285;19;20025;-74
2022/12/04 07:57:00;;;;;;;104.90;31.50;;;1.00;99.90;;;;;;7623334;19;20022;-74
2022/12/04 07:59:32;;;;;;;119.60;32.72;;;1.10;99.90;;;;;;7639893;19;20018;-74
2022/12/04 08:02:05;;;;;;;144.57;34.03;;;1.10;99.90;;;;;;7614114;19;20137;-73
2022/12/04 08:04:37;;;;;;;88.63;29.15;;;1.10;99.90;;;;;;7619766;19;20026;-73
2022/12/04 08:07:10;;;;;;;78.95;27.05;;;1.10;99.90;;;;;;7620376;19;21560;-75
2022/12/04 08:09:42;;;;;;;90.10;28.73;;;1.10;99.90;;;;;;7631520;19;20266;-75
2022/12/04 08:12:14;;;;;;;145.27;32.33;;;1.20;99.90;;;;;;7622226;19;20376;-75
2022/12/04 08:14:48;;;;;;;109.53;31.13;;;1.20;99.90;;;;;;7622945;19;20022;-76
2022/12/04 08:17:21;;;;;;;90.07;27.80;;;1.20;99.90;;;;;;7603348;19;20018;-75
2022/12/04 08:19:53;;;;;;;82.63;26.90;;;1.30;99.90;;;;;;7609107;19;20056;-76
2022/12/04 08:22:25;;;;;;;92.15;26.83;;;1.30;99.90;;;;;;7634928;19;20021;-76
2022/12/04 08:24:58;;;;;;;108.03;28.63;;;1.30;99.90;;;;;;7620319;19;20021;-73
2022/12/04 08:27:30;;;;;;;86.40;26.13;;;1.40;99.90;;;;;;7616296;19;20082;-75
2022/12/04 08:30:02;;;;;;;79.07;26.08;;;1.30;99.90;;;;;;7570842;19;20041;-75
2022/12/04 08:32:34;;;;;;;78.60;28.25;;;1.40;99.90;;;;;;7607361;19;20018;-76
2022/12/04 08:35:07;;;;;;;95.63;27.85;;;1.40;99.90;;;;;;7570613;19;20545;-75
2022/12/04 08:37:39;;;;;;;66.05;24.48;;;1.50;99.90;;;;;;7574077;19;20015;-74
2022/12/04 08:40:12;;;;;;;55.35;23.15;;;1.40;99.90;;;;;;7597896;19;20649;-74
2022/12/04 08:42:44;;;;;;;126.65;33.92;;;1.50;99.90;;;;;;7592712;19;20043;-75
2022/12/04 08:45:16;;;;;;;69.30;24.92;;;1.50;99.90;;;;;;7573966;19;20614;-75
2022/12/04 08:47:48;;;;;;;87.63;27.48;;;1.40;99.90;;;;;;7570586;19;20017;-75
2022/12/04 08:50:23;;;;;;;88.50;31.80;;;1.40;99.90;;;;;;7543618;19;20506;-74
2022/12/04 08:52:55;;;;;;;77.30;26.20;;;1.40;99.90;;;;;;7567744;19;22051;-75
2022/12/04 08:55:28;;;;;;;110.40;29.60;;;1.50;99.90;;;;;;7579808;19;20018;-75
2022/12/04 08:58:00;;;;;;;164.55;33.95;;;1.50;99.90;;;;;;7581096;19;20056;-75
2022/12/04 09:00:32;;;;;;;166.73;30.80;;;1.60;99.90;;;;;;7604428;19;20307;-75
2022/12/04 09:03:04;;;;;;;94.43;25.55;;;1.60;99.90;;;;;;7568010;19;21050;-76
2022/12/04 09:05:36;;;;;;;185.07;44.92;;;1.60;99.90;;;;;;7593059;19;20060;-75
2022/12/04 09:08:08;;;;;;;161.68;40.38;;;1.60;99.90;;;;;;7572346;19;20026;-75
2022/12/04 09:10:41;;;;;;;119.00;39.13;;;1.60;99.90;;;;;;7583191;19;20021;-75
2022/12/04 09:13:13;;;;;;;116.80;28.65;;;1.60;99.90;;;;;;7595323;19;20011;-75
2022/12/04 14:47:53;;;;;;;167.52;51.80;;;2.00;99.90;;;;;;7618512;19;20404;-72
2022/12/04 14:50:45;;;;;;;169.63;50.70;;;2.00;99.90;;;;;;7615432;19;20052;-72
2022/12/04 14:53:45;;;;;;;179.20;52.75;;;2.00;99.90;;;;;;7602665;19;20022;-71
2022/12/04 14:56:55;;;;;;;128.63;45.30;;;2.20;99.90;;;;;;7590960;19;20022;-73
2022/12/04 14:59:49;;;;;;;208.40;54.53;;;2.30;99.90;;;;;;7600977;19;20021;-73
2022/12/04 15:02:26;;;;;;;120.55;43.30;;;2.30;99.90;;;;;;7583650;19;20014;-73
2022/12/04 15:04:59;;;;;;;159.93;48.10;;;2.30;99.90;;;;;;7579282;19;20649;-68
2022/12/04 15:07:32;;;;;;;152.80;43.60;;;2.40;99.90;;;;;;7591442;19;20607;-70
2022/12/04 15:13:29;;;;;;;198.10;56.55;;;2.50;99.90;;;;;;7612052;19;20819;-69
2022/12/04 15:16:10;;;;;;;170.75;51.92;;;2.60;99.90;;;;;;7626198;19;20957;-70
2022/12/04 15:18:56;;;;;;;99.53;31.52;;;2.60;99.90;;;;;;7601648;19;20028;-70
2022/12/04 15:21:39;;;;;;;146.88;49.67;;;2.70;99.90;;;;;;7620661;19;20563;-69
2022/12/04 15:24:23;;;;;;;155.13;48.90;;;2.60;99.90;;;;;;7623858;19;20021;-69
2022/12/04 15:26:55;;;;;;;137.52;44.95;;;2.60;99.90;;;;;;7618087;19;20018;-69
2022/12/04 15:29:31;;;;;;;174.43;49.20;;;2.50;99.90;;;;;;7604231;19;20014;-69
2022/12/04 15:32:09;;;;;;;149.45;44.40;;;2.50;99.90;;;;;;7597748;19;20095;-69
2022/12/04 15:34:44;;;;;;;166.43;45.33;;;2.50;99.90;;;;;;7563996;19;20018;-70
2022/12/04 15:37:24;;;;;;;206.05;52.05;;;2.40;99.90;;;;;;7586783;19;20015;-68
2022/12/04 15:39:57;;;;;;;193.90;49.65;;;2.40;99.90;;;;;;7617420;19;20456;-68
2022/12/04 15:42:29;;;;;;;;;;;2.40;99.90;;;;;;7629594;19;20025;-70
2022/12/04 15:45:22;;;;;;;203.75;49.78;;;2.40;99.90;;;;;;7622957;19;20019;-68
2022/12/04 15:47:56;;;;;;;146.40;40.90;;;2.30;99.90;;;;;;7626065;19;20606;-70
2022/12/04 15:50:29;;;;;;;167.52;41.33;;;2.30;99.90;;;;;;7618432;19;20014;-69
2022/12/04 15:53:05;;;;;;;232.32;51.28;;;2.30;99.90;;;;;;7618873;19;21870;-69
2022/12/04 15:55:47;;;;;;;252.98;55.55;;;2.30;99.90;;;;;;7612257;19;20346;-70
2022/12/04 15:58:21;;;;;;;212.18;54.55;;;2.40;99.90;;;;;;7574820;19;20485;-68
2022/12/04 16:01:00;;;;;;;250.13;53.90;;;2.30;99.90;;;;;;7600128;19;20517;-69
2022/12/04 16:03:42;;;;;;;199.18;53.50;;;2.30;99.90;;;;;;7596353;19;20023;-69
2022/12/04 16:06:20;;;;;;;267.10;57.72;;;2.30;99.90;;;;;;7572694;19;20129;-69
2022/12/04 16:08:57;;;;;;;159.15;47.13;;;2.30;99.90;;;;;;7593120;19;20011;-69
2022/12/04 16:11:33;;;;;;;194.13;49.97;;;2.30;99.90;;;;;;7595342;19;20015;-71
2022/12/04 16:14:11;;;;;;;207.75;49.88;;;2.30;99.90;;;;;;7596890;19;20518;-70
2022/12/04 16:16:48;;;;;;;156.95;41.78;;;2.30;99.90;;;;;;7580525;19;20019;-69
2022/12/04 16:19:29;;;;;;;141.27;42.00;;;2.30;99.90;;;;;;7580829;19;20024;-71
2022/12/04 16:22:08;;;;;;;176.50;47.33;;;2.40;99.90;;;;;;7588939;19;20445;-70
2022/12/04 16:24:41;;;;;;;151.57;43.03;;;2.30;99.90;;;;;;7582854;19;20487;-70
2022/12/04 16:27:16;;;;;;;174.50;43.00;;;2.40;99.90;;;;;;7580888;19;20475;-71
2022/12/04 16:29:50;;;;;;;156.63;44.28;;;2.30;99.90;;;;;;7583678;19;20049;-70
2022/12/04 16:32:32;;;;;;;156.43;45.05;;;2.30;99.90;;;;;;7578415;19;20021;-70
2022/12/04 16:35:05;;;;;;;123.28;38.10;;;2.30;99.90;;;;;;7586090;19;20015;-70
2022/12/04 16:37:37;;;;;;;147.73;42.08;;;2.40;99.90;;;;;;7549381;19;20006;-72
2022/12/04 16:40:13;;;;;;;185.38;47.20;;;2.30;99.90;;;;;;7576199;19;20011;-70
2022/12/04 16:42:45;;;;;;;261.95;57.10;;;2.30;99.90;;;;;;7584572;19;20014;-70
2022/12/04 16:45:31;;;;;;;185.52;44.60;;;2.30;99.90;;;;;;7588385;19;25455;-71
2022/12/04 16:48:03;;;;;;;217.00;53.78;;;2.30;99.90;;;;;;7602757;19;20054;-71
2022/12/04 16:50:36;;;;;;;210.02;52.03;;;2.20;99.90;;;;;;7594543;19;20379;-73
2022/12/04 16:53:19;;;;;;;227.75;51.72;;;2.30;99.90;;;;;;7593079;19;20649;-71
2022/12/04 16:55:52;;;;;;;;;;;2.30;99.90;;;;;;7589205;19;20083;-71
2022/12/04 16:58:24;;;;;;;142.30;38.92;;;2.40;99.90;;;;;;7587992;19;20543;-71
2022/12/04 17:00:56;;;;;;;145.40;41.35;;;2.30;99.90;;;;;;7573148;19;20457;-71
2022/12/04 17:03:30;;;;;;;137.50;38.38;;;2.20;99.90;;;;;;7573652;19;20020;-70
2022/12/04 17:06:03;;;;;;;124.45;39.05;;;2.30;99.90;;;;;;7569253;19;21428;-71
2022/12/04 17:08:35;;;;;;;146.45;39.95;;;2.30;99.90;;;;;;7565550;19;20023;-68
2022/12/04 17:11:13;;;;;;;106.75;35.45;;;2.40;99.90;;;;;;7550332;19;20438;-71
2022/12/04 17:13:45;;;;;;;150.23;44.22;;;2.40;99.90;;;;;;7560772;19;20014;-70
2022/12/04 17:16:17;;;;;;;155.27;42.40;;;2.40;99.90;;;;;;7569676;19;20063;-70
2022/12/04 17:18:51;;;;;;;133.50;40.38;;;2.40;99.90;;;;;;7563930;19;20086;-69
2022/12/04 17:21:23;;;;;;;145.93;42.58;;;2.40;99.90;;;;;;7567600;19;20548;-69
2022/12/04 17:23:55;;;;;;;118.15;38.90;;;2.40;99.90;;;;;;7586377;19;20006;-69
2022/12/04 17:26:28;;;;;;;128.30;42.80;;;2.40;99.90;;;;;;7583808;19;20422;-70
2022/12/04 17:29:00;;;;;;;93.80;35.53;;;2.40;99.90;;;;;;7588884;19;20022;-70
2022/12/04 17:31:32;;;;;;;131.13;42.33;;;2.50;99.90;;;;;;7594223;19;20040;-70
2022/12/04 17:34:04;;;;;;;78.13;32.72;;;2.50;99.90;;;;;;7606382;19;20070;-71
2022/12/04 17:36:36;;;;;;;96.55;34.47;;;2.50;99.90;;;;;;7599594;19;20070;-69
2022/12/04 17:39:10;;;;;;;110.60;37.58;;;2.50;99.90;;;;;;7600517;19;20014;-70
2022/12/04 17:41:42;;;;;;;102.38;33.33;;;2.50;99.90;;;;;;7563805;19;21358;-69
2022/12/04 17:44:14;;;;;;;109.32;35.70;;;2.50;99.90;;;;;;7579252;19;20395;-70
2022/12/04 17:46:47;;;;;;;110.65;35.80;;;2.50;99.90;;;;;;7588384;19;20378;-71
2022/12/04 17:49:19;;;;;;;98.72;36.47;;;2.60;99.90;;;;;;7596390;19;20923;-70
2022/12/04 17:51:51;;;;;;;127.43;41.33;;;2.60;99.90;;;;;;7582200;19;20651;-71
2022/12/04 17:54:24;;;;;;;115.07;37.03;;;2.60;99.90;;;;;;7577944;19;20615;-69
2022/12/04 17:56:56;;;;;;;101.88;35.50;;;2.50;99.90;;;;;;7563569;19;20278;-71
2022/12/04 17:59:29;;;;;;;114.97;35.78;;;2.60;99.90;;;;;;7592361;19;20850;-69
2022/12/04 18:02:01;;;;;;;125.82;38.75;;;2.60;99.90;;;;;;7588351;19;20517;-70
2022/12/04 18:04:33;;;;;;;104.85;33.70;;;2.50;99.90;;;;;;7597098;19;20011;-70
2022/12/04 18:07:05;;;;;;;102.72;34.67;;;2.60;99.90;;;;;;7594195;19;20284;-70
2022/12/04 18:09:40;;;;;;;119.05;34.65;;;2.60;99.90;;;;;;7585280;19;20011;-70
2022/12/04 18:12:13;;;;;;;78.25;28.48;;;2.60;99.90;;;;;;7578398;19;20502;-70
2022/12/04 18:14:45;;;;;;;90.45;32.65;;;2.50;99.90;;;;;;7596360;19;20397;-71
2022/12/04 18:17:19;;;;;;;78.20;28.80;;;2.60;99.90;;;;;;7581245;19;20011;-69
2022/12/04 18:19:51;;;;;;;89.43;32.90;;;2.50;99.90;;;;;;7592521;19;20643;-71
2022/12/04 18:22:24;;;;;;;106.57;34.07;;;2.50;99.90;;;;;;7597451;19;20026;-69
2022/12/04 18:24:56;;;;;;;85.07;32.67;;;2.50;99.90;;;;;;7581335;19;20015;-69
2022/12/04 18:27:29;;;;;;;92.45;32.70;;;2.50;99.90;;;;;;7587021;19;20421;-69
2022/12/04 18:30:01;;;;;;;89.40;30.08;;;2.50;99.90;;;;;;7598784;19;20556;-70
2022/12/04 18:32:33;;;;;;;74.05;27.77;;;2.50;99.90;;;;;;7594406;19;20011;-69
2022/12/04 18:35:05;;;;;;;71.72;29.23;;;2.50;99.90;;;;;;7583693;19;20067;-69
2022/12/04 18:37:37;;;;;;;105.80;34.33;;;2.60;99.90;;;;;;7592810;19;20021;-70
2022/12/04 18:40:10;;;;;;;89.05;33.47;;;2.50;99.90;;;;;;7583656;19;20015;-70
2022/12/04 18:42:42;;;;;;;92.20;32.85;;;2.50;99.90;;;;;;7592939;19;20513;-71
